Time;durP1;ratioP1;P1;durP2;ratioP2;P2;SDS_P1;SDS_P2;PMS_P1;PMS_P2;Temp;Humidity;BMP_temperature;BMP_pressure;BME280_temperature;BME280_humidity;BME280_pressure;Samples;Min_cycle;Max_cycle;Signal;HPM_P1;HPM_P2
2023/06/11 00:00:09;;;;;;;4.28;2.70;;;21.20;51.80;;;;;;5010531;28;20033;-65
2023/06/11 00:02:35;;;;;;;3.28;2.58;;;21.20;51.10;;;;;;5011819;28;20088;-64
2023/06/11 00:05:07;;;;;;;5.45;2.78;;;21.20;52.60;;;;;;5010677;28;20029;-64
2023/06/11 00:07:42;;;;;;;6.45;2.83;;;21.20;51.80;;;;;;4991239;28;20061;-64
2023/06/11 00:10:08;;;;;;;3.13;2.47;;;21.10;52.30;;;;;;4988848;28;20028;-65
2023/06/11 00:12:34;;;;;;;5.13;2.92;;;21.10;52.40;;;;;;5010127;28;20037;-65
2023/06/11 00:15:02;;;;;;;4.78;2.60;;;21.00;51.70;;;;;;5011583;28;20039;-65
2023/06/11 00:17:29;;;;;;;5.07;2.65;;;21.00;52.10;;;;;;5008281;28;20085;-65
2023/06/11 00:19:55;;;;;;;4.85;2.92;;;20.90;52.00;;;;;;5011552;28;20041;-65
2023/06/11 00:22:22;;;;;;;5.57;2.40;;;20.90;51.20;;;;;;5009319;28;20030;-65
2023/06/11 00:24:48;;;;;;;3.92;2.83;;;20.80;52.30;;;;;;5011112;28;20041;-65
2023/06/11 00:27:14;;;;;;;6.43;2.70;;;20.80;51.50;;;;;;4991946;28;20032;-65
2023/06/11 00:29:40;;;;;;;4.30;2.88;;;20.80;51.40;;;;;;4992562;28;20477;-65
2023/06/11 00:32:06;;;;;;;4.68;2.60;;;20.80;53.10;;;;;;5011484;28;20032;-65
2023/06/11 00:34:32;;;;;;;4.97;2.78;;;20.70;51.90;;;;;;5010569;28;20026;-65
2023/06/11 00:36:59;;;;;;;5.32;2.90;;;20.70;51.40;;;;;;5011893;28;20035;-66
2023/06/11 00:39:25;;;;;;;7.00;2.70;;;20.60;52.00;;;;;;4990381;28;20037;-67
2023/06/11 00:41:52;;;;;;;5.15;3.03;;;20.60;51.80;;;;;;5009447;28;20040;-67
2023/06/11 00:44:18;;;;;;;4.90;2.95;;;20.60;52.50;;;;;;5008066;28;20076;-67
2023/06/11 00:46:45;;;;;;;4.45;2.50;;;20.50;52.30;;;;;;5016183;28;20125;-67
2023/06/11 00:49:11;;;;;;;4.03;2.40;;;20.50;53.30;;;;;;4993725;28;20091;-67
2023/06/11 00:51:41;;;;;;;3.03;2.30;;;20.50;52.80;;;;;;4998755;28;20113;-67
2023/06/11 00:54:12;;;;;;;4.90;2.70;;;20.40;52.90;;;;;;5011154;28;20048;-66
2023/06/11 00:56:41;;;;;;;3.97;2.80;;;20.40;53.40;;;;;;5011447;28;20026;-66
2023/06/11 00:59:07;;;;;;;2.97;2.03;;;20.30;53.10;;;;;;4994193;28;20453;-66
2023/06/11 01:01:41;;;;;;;6.43;2.40;;;20.20;53.30;;;;;;5011803;28;20029;-67
2023/06/11 01:04:17;;;;;;;7.13;2.88;;;20.20;53.80;;;;;;5005921;28;20516;-66
2023/06/11 01:06:49;;;;;;;2.53;2.30;;;20.20;54.00;;;;;;5009237;28;20136;-66
2023/06/11 01:09:22;;;;;;;7.28;2.58;;;20.10;53.30;;;;;;5008165;28;20058;-67
2023/06/11 01:11:54;;;;;;;2.95;2.30;;;20.10;54.60;;;;;;5010236;28;20021;-67
2023/06/11 01:14:20;;;;;;;4.20;2.33;;;20.00;54.70;;;;;;4975458;28;20119;-67
2023/06/11 01:17:05;;;;;;;4.07;2.00;;;20.00;54.30;;;;;;4993219;28;20478;-66
2023/06/11 01:19:58;;;;;;;3.95;2.03;;;20.00;54.60;;;;;;4987575;28;20065;-67
2023/06/11 01:22:41;;;;;;;3.40;2.28;;;19.90;54.50;;;;;;5012043;28;20112;-66
2023/06/11 01:25:39;;;;;;;4.55;2.50;;;19.90;55.20;;;;;;4993302;28;20041;-66
2023/06/11 01:28:16;;;;;;;10.73;2.22;;;19.90;55.60;;;;;;4998084;28;20033;-66
2023/06/11 01:30:48;;;;;;;5.28;2.60;;;19.80;54.50;;;;;;5014624;28;20049;-66
2023/06/11 01:33:14;;;;;;;5.53;2.55;;;19.70;55.60;;;;;;5013422;28;20036;-66
2023/06/11 01:35:46;;;;;;;3.63;1.90;;;19.70;55.90;;;;;;5016403;28;20090;-66
2023/06/11 01:38:13;;;;;;;3.90;2.13;;;19.60;55.60;;;;;;4996633;28;20057;-66
2023/06/11 01:40:43;;;;;;;4.22;1.98;;;19.60;55.70;;;;;;4994120;28;20113;-66
2023/06/11 01:43:09;;;;;;;4.43;2.03;;;19.60;56.80;;;;;;4995692;28;20160;-66
2023/06/11 01:45:36;;;;;;;3.67;2.45;;;19.50;55.70;;;;;;5014349;28;20034;-66
2023/06/11 01:48:02;;;;;;;3.78;2.00;;;19.50;57.00;;;;;;4998579;28;20796;-66
2023/06/11 01:50:30;;;;;;;3.88;2.10;;;19.50;56.40;;;;;;4996929;28;20026;-67
2023/06/11 01:52:55;;;;;;;4.72;2.50;;;19.50;56.90;;;;;;4993722;28;20029;-66
2023/06/11 01:55:23;;;;;;;2.58;2.20;;;19.40;57.30;;;;;;4995906;28;20489;-66
2023/06/11 01:57:49;;;;;;;3.50;2.50;;;19.40;57.40;;;;;;4995907;28;20076;-66
2023/06/11 02:00:15;;;;;;;3.45;2.03;;;19.40;57.80;;;;;;5013369;28;20037;-66
2023/06/11 02:02:47;;;;;;;7.45;2.15;;;19.30;57.50;;;;;;5015426;28;20101;-66
2023/06/11 02:05:14;;;;;;;5.38;2.17;;;19.30;57.00;;;;;;4991409;28;20025;-66
2023/06/11 02:07:40;;;;;;;6.05;2.67;;;19.20;57.30;;;;;;4992993;28;20037;-66
2023/06/11 02:10:07;;;;;;;4.63;2.33;;;19.20;57.50;;;;;;4993978;28;20025;-66
2023/06/11 02:12:33;;;;;;;4.07;2.38;;;19.10;58.00;;;;;;4994182;28;20080;-66
2023/06/11 02:14:59;;;;;;;7.53;2.35;;;19.10;57.50;;;;;;4998349;28;20035;-66
2023/06/11 02:17:25;;;;;;;3.65;2.15;;;19.10;58.30;;;;;;5011770;28;20129;-65
2023/06/11 02:19:50;;;;;;;3.50;2.00;;;19.10;58.20;;;;;;5015573;28;20057;-67
2023/06/11 02:22:17;;;;;;;3.67;2.13;;;19.10;58.20;;;;;;4989829;28;20034;-66
2023/06/11 02:24:43;;;;;;;3.22;2.08;;;19.00;57.90;;;;;;5013515;28;20107;-66
2023/06/11 02:27:09;;;;;;;5.60;2.10;;;19.00;58.80;;;;;;4996799;28;20033;-66
2023/06/11 02:29:35;;;;;;;4.63;1.92;;;18.90;58.70;;;;;;4996694;28;20163;-66
2023/06/11 02:32:03;;;;;;;4.18;2.00;;;18.90;59.70;;;;;;4993125;28;20449;-66
2023/06/11 02:34:29;;;;;;;3.30;1.88;;;18.90;59.10;;;;;;4998318;28;20032;-66
2023/06/11 02:36:55;;;;;;;3.53;2.03;;;18.80;58.90;;;;;;5014422;28;20473;-66
2023/06/11 02:39:21;;;;;;;4.55;2.17;;;18.80;58.80;;;;;;5011076;28;20033;-66
2023/06/11 02:41:47;;;;;;;3.47;2.20;;;18.80;59.30;;;;;;4995170;28;20029;-65
2023/06/11 02:44:13;;;;;;;2.58;2.03;;;18.80;59.30;;;;;;5010018;28;20041;-65
2023/06/11 02:46:39;;;;;;;2.38;1.83;;;18.80;59.30;;;;;;5014844;28;20124;-66
2023/06/11 02:49:05;;;;;;;3.20;2.10;;;18.70;60.50;;;;;;5010018;28;20700;-66
2023/06/11 02:51:31;;;;;;;5.97;2.25;;;18.70;60.20;;;;;;5008215;28;20137;-67
2023/06/11 02:53:57;;;;;;;5.03;3.05;;;18.70;59.80;;;;;;4988868;28;20124;-67
2023/06/11 02:56:23;;;;;;;4.82;1.90;;;18.60;60.10;;;;;;5012502;28;20050;-66
2023/06/11 02:58:49;;;;;;;6.78;2.30;;;18.60;60.90;;;;;;4996999;28;20641;-66
2023/06/11 03:01:15;;;;;;;3.63;2.15;;;18.60;60.50;;;;;;4996068;28;20030;-66
2023/06/11 03:03:41;;;;;;;6.22;2.03;;;18.60;61.10;;;;;;4996758;28;20037;-66
2023/06/11 03:06:08;;;;;;;3.30;2.05;;;18.50;60.80;;;;;;4989306;28;20021;-66
2023/06/11 03:08:34;;;;;;;8.88;2.33;;;18.50;61.60;;;;;;4980618;28;20030;-66
2023/06/11 03:11:00;;;;;;;6.15;1.90;;;18.40;61.00;;;;;;5010671;28;20033;-66
2023/06/11 03:13:28;;;;;;;3.22;1.98;;;18.40;61.90;;;;;;4991410;28;20057;-66
2023/06/11 03:15:55;;;;;;;2.95;1.88;;;18.40;62.50;;;;;;5007540;28;20053;-66
2023/06/11 03:18:22;;;;;;;3.92;1.92;;;18.30;62.20;;;;;;4996330;28;20026;-66
2023/06/11 03:20:48;;;;;;;3.40;1.98;;;18.30;62.20;;;;;;4992291;28;20025;-65
2023/06/11 03:23:15;;;;;;;5.40;1.80;;;18.20;62.30;;;;;;4994917;28;20068;-66
2023/06/11 03:25:43;;;;;;;2.13;1.60;;;18.20;63.00;;;;;;4984987;28;20622;-66
2023/06/11 03:28:09;;;;;;;4.47;2.25;;;18.20;63.60;;;;;;4993040;28;20033;-66
2023/06/11 03:30:35;;;;;;;4.35;1.70;;;18.10;63.10;;;;;;4994015;28;20034;-66
2023/06/11 03:33:02;;;;;;;5.07;2.00;;;18.00;64.00;;;;;;4994361;28;20175;-66
2023/06/11 03:35:29;;;;;;;2.42;1.88;;;18.00;62.80;;;;;;4993636;28;20141;-66
2023/06/11 03:37:55;;;;;;;3.80;1.92;;;18.00;63.40;;;;;;4993617;28;20029;-65
2023/06/11 03:40:23;;;;;;;5.10;1.90;;;18.00;63.70;;;;;;4991799;28;21003;-65
2023/06/11 03:42:51;;;;;;;2.22;1.55;;;18.00;64.60;;;;;;4991055;28;20034;-66
2023/06/11 03:45:17;;;;;;;2.88;1.88;;;18.00;64.80;;;;;;4988044;28;20030;-66
2023/06/11 03:47:43;;;;;;;5.10;1.95;;;18.00;65.30;;;;;;4994195;28;20036;-66
2023/06/11 03:50:09;;;;;;;6.20;1.90;;;17.90;65.70;;;;;;4987416;28;20751;-65
2023/06/11 03:52:36;;;;;;;4.97;1.95;;;17.90;65.80;;;;;;4996975;28;20054;-66
2023/06/11 03:55:04;;;;;;;4.57;2.00;;;17.90;65.00;;;;;;4988482;28;20449;-66
2023/06/11 03:57:30;;;;;;;4.63;1.73;;;17.90;64.70;;;;;;5008914;28;20040;-66
2023/06/11 03:59:57;;;;;;;5.20;2.15;;;17.90;65.80;;;;;;4994645;28;20025;-66
2023/06/11 04:02:22;;;;;;;4.93;2.05;;;17.80;66.40;;;;;;5011147;28;20037;-66
2023/06/11 04:04:48;;;;;;;7.68;2.65;;;17.80;65.60;;;;;;4994505;28;20029;-66
2023/06/11 04:07:14;;;;;;;2.20;1.58;;;17.80;65.80;;;;;;4991528;28;20108;-66
2023/06/11 04:09:40;;;;;;;2.90;1.63;;;17.80;65.20;;;;;;4993683;28;20041;-66
2023/06/11 04:12:06;;;;;;;3.78;1.95;;;17.90;65.60;;;;;;5009022;28;20026;-66
2023/06/11 04:14:33;;;;;;;4.05;2.00;;;17.90;65.10;;;;;;4994422;28;20030;-65
2023/06/11 04:16:59;;;;;;;5.03;2.33;;;17.90;65.50;;;;;;4991818;28;20456;-64
2023/06/11 04:19:25;;;;;;;9.15;1.98;;;17.90;65.00;;;;;;4992814;28;20064;-64
2023/06/11 04:21:51;;;;;;;3.90;1.98;;;18.00;65.60;;;;;;4994842;28;20025;-65
2023/06/11 04:24:17;;;;;;;4.63;1.92;;;18.00;65.60;;;;;;4991904;28;20316;-65
2023/06/11 04:26:44;;;;;;;3.55;2.17;;;18.00;64.60;;;;;;5012979;28;20033;-64
2023/06/11 04:29:10;;;;;;;5.20;1.95;;;18.00;65.60;;;;;;5009579;28;20045;-65
2023/06/11 04:31:36;;;;;;;3.97;1.92;;;18.00;66.40;;;;;;5002974;28;20684;-64
2023/06/11 04:34:06;;;;;;;3.10;1.70;;;18.00;65.80;;;;;;4991839;28;20201;-65
2023/06/11 04:36:38;;;;;;;5.80;1.85;;;18.10;66.40;;;;;;4999031;28;20041;-65
2023/06/11 04:39:05;;;;;;;6.30;2.40;;;18.10;64.70;;;;;;4993662;28;20035;-65
2023/06/11 04:41:32;;;;;;;2.45;1.80;;;18.20;65.20;;;;;;4991307;28;20030;-65
2023/06/11 04:44:02;;;;;;;4.20;1.75;;;18.20;65.00;;;;;;4993243;28;20476;-65
2023/06/11 04:46:32;;;;;;;4.63;2.10;;;18.20;66.10;;;;;;4992731;28;20257;-65
2023/06/11 04:49:00;;;;;;;5.43;2.08;;;18.20;64.10;;;;;;4991077;28;20409;-65
2023/06/11 04:51:32;;;;;;;3.78;2.00;;;18.20;65.00;;;;;;5008394;28;20108;-65
2023/06/11 04:54:07;;;;;;;2.80;1.60;;;18.20;63.20;;;;;;4995079;28;20025;-65
2023/06/11 04:56:35;;;;;;;4.10;1.52;;;18.30;63.10;;;;;;4992979;28;20064;-65
2023/06/11 04:59:05;;;;;;;5.80;1.95;;;18.30;63.10;;;;;;4996413;28;20035;-65
2023/06/11 05:01:32;;;;;;;3.67;2.00;;;18.40;62.30;;;;;;4996303;28;20127;-65
2023/06/11 05:04:00;;;;;;;3.92;2.00;;;18.50;63.70;;;;;;5015192;28;20064;-65
2023/06/11 05:06:27;;;;;;;7.03;1.92;;;18.60;63.70;;;;;;5015918;28;20044;-65
2023/06/11 05:08:54;;;;;;;2.92;2.00;;;18.60;63.30;;;;;;4995910;28;20030;-64
2023/06/11 05:11:20;;;;;;;6.57;2.03;;;18.60;63.50;;;;;;4997489;28;20108;-65
2023/06/11 05:13:46;;;;;;;3.88;1.98;;;18.70;63.60;;;;;;4995624;28;20436;-65
2023/06/11 05:16:12;;;;;;;5.32;2.00;;;18.70;62.40;;;;;;4997360;28;20039;-65
2023/06/11 05:18:38;;;;;;;3.53;2.17;;;18.80;63.30;;;;;;4996389;28;20030;-65
2023/06/11 05:21:06;;;;;;;3.50;1.98;;;18.90;62.30;;;;;;4998747;28;20023;-65
2023/06/11 05:23:33;;;;;;;6.15;1.90;;;19.00;62.60;;;;;;4998295;28;20401;-65
2023/06/11 05:26:08;;;;;;;3.80;1.85;;;19.20;62.50;;;;;;4996004;28;20776;-65
2023/06/11 05:28:38;;;;;;;4.75;1.98;;;19.30;60.80;;;;;;4982747;28;20045;-65
2023/06/11 05:31:06;;;;;;;3.42;1.85;;;19.30;61.00;;;;;;4997487;28;20109;-65
2023/06/11 05:33:32;;;;;;;4.95;2.63;;;19.30;60.90;;;;;;4995408;28;20121;-65
2023/06/11 05:35:58;;;;;;;3.53;2.10;;;19.40;62.00;;;;;;4997122;28;20105;-65
2023/06/11 05:38:24;;;;;;;2.97;1.85;;;19.40;61.30;;;;;;4994276;28;20033;-65
2023/06/11 05:40:51;;;;;;;5.13;2.10;;;19.50;61.80;;;;;;4996158;28;20033;-65
2023/06/11 05:43:17;;;;;;;4.63;2.20;;;19.50;63.00;;;;;;5012705;28;20056;-65
2023/06/11 05:45:48;;;;;;;10.00;2.10;;;19.50;61.70;;;;;;4993373;28;20029;-66
2023/06/11 05:48:15;;;;;;;4.97;1.92;;;19.50;60.80;;;;;;4995251;28;20120;-65
2023/06/11 05:50:41;;;;;;;4.63;1.70;;;19.60;61.70;;;;;;5013597;28;20191;-65
2023/06/11 05:53:09;;;;;;;3.58;1.77;;;19.70;60.90;;;;;;4995449;28;20520;-65
2023/06/11 05:55:37;;;;;;;3.80;1.75;;;19.70;60.60;;;;;;4996272;28;20026;-65
2023/06/11 05:58:05;;;;;;;4.97;2.00;;;19.90;61.40;;;;;;4996714;28;20026;-66
2023/06/11 06:00:31;;;;;;;6.40;1.70;;;19.90;60.30;;;;;;4996950;28;20044;-65
2023/06/11 06:02:57;;;;;;;2.90;1.67;;;20.00;60.00;;;;;;4993547;28;20620;-65
2023/06/11 06:05:28;;;;;;;5.15;2.00;;;20.10;60.30;;;;;;4993222;28;20084;-65
2023/06/11 06:07:55;;;;;;;2.90;1.83;;;20.20;58.70;;;;;;4996979;28;20030;-65
2023/06/11 06:10:22;;;;;;;7.68;2.08;;;20.20;59.70;;;;;;4993471;28;20033;-65
2023/06/11 06:12:48;;;;;;;5.43;1.92;;;20.30;58.30;;;;;;5015411;28;20402;-65
2023/06/11 06:15:14;;;;;;;5.38;2.00;;;20.50;59.00;;;;;;4993487;28;20037;-65
2023/06/11 06:17:41;;;;;;;2.20;1.70;;;20.50;57.70;;;;;;4992786;28;20029;-65
2023/06/11 06:20:12;;;;;;;3.75;2.30;;;20.50;57.90;;;;;;4993447;28;20029;-65
2023/06/11 06:22:38;;;;;;;3.22;1.80;;;20.70;58.20;;;;;;4994040;28;20033;-65
2023/06/11 06:25:06;;;;;;;5.13;1.67;;;20.70;57.20;;;;;;4990558;28;20095;-65
2023/06/11 06:27:33;;;;;;;2.67;1.85;;;20.80;57.60;;;;;;4994433;28;20026;-66
2023/06/11 06:29:59;;;;;;;4.13;2.22;;;20.80;57.90;;;;;;4991745;28;20080;-66
2023/06/11 06:32:25;;;;;;;3.72;2.13;;;20.90;56.40;;;;;;5013586;28;20053;-65
2023/06/11 06:34:51;;;;;;;6.00;2.10;;;20.90;57.40;;;;;;4995404;28;20025;-65
2023/06/11 06:37:17;;;;;;;2.33;1.75;;;21.00;57.30;;;;;;4993654;28;20073;-65
2023/06/11 06:39:45;;;;;;;6.43;2.20;;;21.00;56.20;;;;;;4993395;28;20029;-65
2023/06/11 06:42:12;;;;;;;4.78;1.92;;;21.10;57.00;;;;;;4991456;28;20038;-66
2023/06/11 06:44:42;;;;;;;5.82;2.30;;;21.20;56.20;;;;;;4994494;28;20132;-66
2023/06/11 06:47:08;;;;;;;12.25;2.60;;;21.10;55.80;;;;;;4993140;28;20029;-65
2023/06/11 06:49:35;;;;;;;3.47;1.73;;;21.20;56.40;;;;;;4994219;28;20136;-65
2023/06/11 06:52:02;;;;;;;2.50;1.90;;;21.30;56.40;;;;;;4993359;28;20033;-65
2023/06/11 06:54:28;;;;;;;2.85;2.15;;;21.30;56.20;;;;;;4994712;28;20493;-66
2023/06/11 06:56:55;;;;;;;5.50;2.00;;;21.30;56.30;;;;;;4991867;28;20071;-66
2023/06/11 06:59:20;;;;;;;5.35;2.13;;;21.40;55.60;;;;;;4986452;28;20051;-66
2023/06/11 07:01:47;;;;;;;3.97;2.03;;;21.40;55.60;;;;;;4994431;28;20033;-66
2023/06/11 07:04:13;;;;;;;3.85;2.08;;;21.50;56.40;;;;;;4989080;28;20115;-65
2023/06/11 07:06:39;;;;;;;5.03;2.03;;;21.60;56.00;;;;;;4994778;28;20163;-65
2023/06/11 07:09:05;;;;;;;4.25;2.10;;;21.70;56.20;;;;;;4992560;28;20735;-65
2023/06/11 07:11:32;;;;;;;3.53;2.10;;;21.80;55.40;;;;;;4994733;28;20506;-66
2023/06/11 07:13:57;;;;;;;3.22;2.33;;;21.90;56.00;;;;;;4990042;28;20026;-66
2023/06/11 07:16:25;;;;;;;4.32;1.90;;;22.00;55.90;;;;;;4992658;28;20835;-66
2023/06/11 07:18:55;;;;;;;4.75;2.33;;;22.10;55.10;;;;;;4995392;28;20493;-66
2023/06/11 07:21:23;;;;;;;4.65;2.60;;;22.20;55.20;;;;;;4987926;28;20029;-66
2023/06/11 07:23:50;;;;;;;4.13;1.95;;;22.20;55.30;;;;;;4994278;28;20869;-65
2023/06/11 07:26:17;;;;;;;6.53;2.05;;;22.20;54.60;;;;;;4987645;28;20030;-65
2023/06/11 07:28:45;;;;;;;5.45;2.10;;;22.30;54.00;;;;;;5012496;28;20036;-66
2023/06/11 07:31:12;;;;;;;6.10;2.20;;;22.40;54.40;;;;;;4992446;28;20033;-65
2023/06/11 07:33:41;;;;;;;6.45;2.65;;;22.50;54.30;;;;;;4993764;28;20125;-66
2023/06/11 07:36:07;;;;;;;3.72;2.38;;;22.60;54.90;;;;;;4989184;28;20100;-66
2023/06/11 07:38:33;;;;;;;4.65;2.10;;;22.60;54.50;;;;;;4987395;28;20029;-65
2023/06/11 07:41:01;;;;;;;8.57;2.28;;;22.60;54.50;;;;;;4993970;28;20035;-66
2023/06/11 07:43:27;;;;;;;4.10;2.42;;;22.70;54.70;;;;;;4993632;28;20053;-65
2023/06/11 07:45:53;;;;;;;4.75;2.22;;;22.70;54.10;;;;;;4993815;28;20142;-66
2023/06/11 07:48:20;;;;;;;5.18;2.60;;;22.90;54.70;;;;;;4991558;28;20797;-65
2023/06/11 07:50:49;;;;;;;5.15;2.33;;;22.90;54.00;;;;;;5011140;28;20120;-66
2023/06/11 07:53:16;;;;;;;3.97;2.30;;;23.10;54.50;;;;;;4993635;28;20029;-66
2023/06/11 07:55:42;;;;;;;5.95;2.35;;;23.10;54.10;;;;;;5010220;28;20697;-66
2023/06/11 07:58:08;;;;;;;3.97;2.28;;;23.00;53.40;;;;;;5011321;28;20083;-65
2023/06/11 08:00:34;;;;;;;3.25;1.95;;;23.10;53.50;;;;;;5010414;28;20512;-66
2023/06/11 08:03:00;;;;;;;5.28;2.45;;;23.10;53.60;;;;;;5011755;28;20548;-66
2023/06/11 08:05:26;;;;;;;2.83;2.15;;;23.10;54.00;;;;;;5012096;28;20150;-66
2023/06/11 08:07:52;;;;;;;4.50;2.45;;;23.30;53.80;;;;;;5008546;28;20030;-66
2023/06/11 08:10:18;;;;;;;4.32;2.60;;;23.30;53.40;;;;;;5010535;28;20541;-66
2023/06/11 08:12:43;;;;;;;3.83;2.30;;;23.40;53.60;;;;;;5011387;28;20033;-66
2023/06/11 08:15:10;;;;;;;3.97;2.10;;;23.50;53.00;;;;;;5010601;28;20539;-66
2023/06/11 08:17:35;;;;;;;6.80;2.63;;;23.50;52.80;;;;;;5009893;28;20030;-66
2023/06/11 08:20:06;;;;;;;3.63;2.60;;;23.60;52.40;;;;;;5009756;28;20130;-66
2023/06/11 08:22:31;;;;;;;6.80;2.65;;;23.70;52.80;;;;;;5011467;28;20040;-65
2023/06/11 08:24:57;;;;;;;6.45;2.45;;;23.70;52.70;;;;;;5008648;28;20444;-66
2023/06/11 08:27:23;;;;;;;3.35;2.40;;;23.80;53.10;;;;;;5010389;28;20038;-66
2023/06/11 08:29:49;;;;;;;5.40;2.60;;;23.90;53.30;;;;;;5013989;28;20037;-67
2023/06/11 08:32:15;;;;;;;4.32;2.33;;;24.10;52.70;;;;;;5017591;28;20025;-68
2023/06/11 08:34:40;;;;;;;6.97;2.67;;;24.20;52.40;;;;;;5017694;28;20060;-68
2023/06/11 08:37:06;;;;;;;4.22;2.50;;;24.30;52.70;;;;;;5014696;28;20037;-68
2023/06/11 08:39:32;;;;;;;5.80;2.55;;;24.40;50.90;;;;;;4999197;28;20032;-68
2023/06/11 08:41:58;;;;;;;6.30;2.42;;;24.50;50.80;;;;;;5012319;28;20025;-68
2023/06/11 08:44:24;;;;;;;8.60;2.67;;;24.60;52.00;;;;;;5010617;28;20777;-68
2023/06/11 08:46:51;;;;;;;4.80;2.50;;;24.70;51.60;;;;;;5012493;28;20037;-68
2023/06/11 08:49:22;;;;;;;6.65;2.60;;;24.70;51.80;;;;;;5015931;28;20038;-66
2023/06/11 08:51:48;;;;;;;5.90;2.45;;;24.80;51.70;;;;;;5012784;28;20576;-67
2023/06/11 08:54:16;;;;;;;5.10;2.65;;;25.00;51.70;;;;;;5014054;28;20474;-68
2023/06/11 08:56:45;;;;;;;5.53;2.95;;;25.10;50.50;;;;;;5002670;28;20025;-66
2023/06/11 08:59:11;;;;;;;4.45;2.50;;;25.10;49.30;;;;;;5012223;28;20491;-69
2023/06/11 09:01:40;;;;;;;6.88;2.17;;;25.20;50.40;;;;;;5009960;28;20032;-66
2023/06/11 09:04:06;;;;;;;3.40;2.28;;;25.40;49.10;;;;;;5016017;28;20029;-66
2023/06/11 09:06:33;;;;;;;4.60;2.55;;;25.60;48.70;;;;;;5014893;28;20127;-66
2023/06/11 09:09:05;;;;;;;5.50;2.20;;;25.60;47.70;;;;;;5010072;28;20038;-66
2023/06/11 09:11:35;;;;;;;6.47;3.13;;;25.50;47.50;;;;;;5013092;28;20544;-66
2023/06/11 09:14:02;;;;;;;4.15;2.08;;;25.50;49.20;;;;;;5011367;28;20141;-66
2023/06/11 09:16:28;;;;;;;8.75;2.58;;;25.50;47.70;;;;;;5015030;28;20743;-66
2023/06/11 09:18:56;;;;;;;5.35;2.70;;;25.50;48.40;;;;;;5011864;28;20030;-67
2023/06/11 09:21:25;;;;;;;5.45;2.85;;;25.60;48.10;;;;;;5013487;28;20025;-67
2023/06/11 09:23:51;;;;;;;5.10;2.50;;;25.60;48.10;;;;;;5006271;28;20065;-69
2023/06/11 09:26:18;;;;;;;5.53;2.63;;;25.60;47.50;;;;;;5004068;28;20026;-67
2023/06/11 09:28:46;;;;;;;5.45;3.10;;;25.70;47.20;;;;;;5017202;28;20033;-67
2023/06/11 09:31:11;;;;;;;5.47;2.75;;;25.80;47.30;;;;;;5018166;28;20136;-68
2023/06/11 09:33:37;;;;;;;3.78;2.92;;;25.80;47.30;;;;;;5011750;28;20485;-67
2023/06/11 09:36:04;;;;;;;3.70;2.88;;;25.80;47.60;;;;;;5009138;28;20519;-67
2023/06/11 09:38:33;;;;;;;3.42;2.85;;;26.00;47.50;;;;;;5013013;28;20061;-68
2023/06/11 09:40:59;;;;;;;7.93;2.83;;;26.10;45.60;;;;;;5004041;28;20490;-68
2023/06/11 09:43:25;;;;;;;5.57;2.70;;;26.30;46.60;;;;;;5006743;28;20034;-67
2023/06/11 09:45:55;;;;;;;6.32;3.28;;;26.30;46.80;;;;;;5010562;28;20044;-69
2023/06/11 09:48:22;;;;;;;3.85;2.88;;;26.50;46.90;;;;;;5019209;28;20072;-67
2023/06/11 09:50:50;;;;;;;7.75;3.13;;;26.60;46.50;;;;;;5016963;28;20448;-63
2023/06/11 09:53:19;;;;;;;5.85;3.72;;;26.60;46.20;;;;;;5010397;28;20096;-62
2023/06/11 09:55:50;;;;;;;3.47;2.72;;;26.60;46.00;;;;;;5007239;28;20029;-64
2023/06/11 09:58:22;;;;;;;10.00;3.15;;;26.40;45.60;;;;;;5006875;28;20060;-64
2023/06/11 10:00:58;;;;;;;4.70;2.95;;;26.40;45.50;;;;;;5014154;28;20102;-64
2023/06/11 10:03:24;;;;;;;6.43;3.00;;;26.20;45.60;;;;;;5006925;28;20116;-63
2023/06/11 10:05:51;;;;;;;3.72;2.80;;;26.00;45.70;;;;;;4987011;28;20038;-64
2023/06/11 10:08:21;;;;;;;6.95;3.30;;;26.10;46.20;;;;;;5007521;28;20033;-64
2023/06/11 10:10:54;;;;;;;6.50;3.00;;;26.20;46.40;;;;;;5003689;28;20026;-65
2023/06/11 10:13:33;;;;;;;4.55;2.85;;;26.20;46.10;;;;;;5005139;28;20025;-64
2023/06/11 10:16:06;;;;;;;4.63;2.70;;;26.30;45.50;;;;;;5008428;28;20112;-65
2023/06/11 10:18:32;;;;;;;3.15;2.83;;;26.40;45.40;;;;;;5009525;28;20088;-65
2023/06/11 10:21:03;;;;;;;4.15;2.67;;;26.40;45.90;;;;;;5010539;28;20042;-65
2023/06/11 10:23:42;;;;;;;4.68;2.83;;;26.50;46.00;;;;;;5012618;28;20052;-64
2023/06/11 10:26:11;;;;;;;6.93;3.03;;;26.50;44.40;;;;;;5016279;28;20126;-65
2023/06/11 10:28:42;;;;;;;14.23;3.13;;;26.60;45.30;;;;;;5004371;28;20044;-64
2023/06/11 10:31:08;;;;;;;6.97;3.03;;;26.70;45.60;;;;;;5007974;28;20026;-66
2023/06/11 10:33:44;;;;;;;7.07;2.97;;;26.80;45.40;;;;;;5005805;28;20041;-64
2023/06/11 10:36:22;;;;;;;10.23;2.78;;;26.90;45.70;;;;;;5005105;28;20385;-65
2023/06/11 10:38:47;;;;;;;8.07;3.42;;;27.10;43.40;;;;;;5009316;28;20643;-64
2023/06/11 10:41:13;;;;;;;4.63;2.65;;;27.10;44.10;;;;;;5014578;28;20104;-66
2023/06/11 10:43:40;;;;;;;6.10;2.70;;;27.30;44.00;;;;;;5011228;28;20828;-64
2023/06/11 10:46:10;;;;;;;5.13;2.88;;;27.30;44.00;;;;;;5006056;28;20108;-65
2023/06/11 10:48:36;;;;;;;5.38;2.70;;;27.40;43.10;;;;;;5007570;28;20036;-65
2023/06/11 10:51:05;;;;;;;4.50;3.13;;;27.50;43.70;;;;;;5007141;28;20034;-64
2023/06/11 10:53:39;;;;;;;5.22;3.50;;;27.50;44.00;;;;;;5004479;28;20244;-65
2023/06/11 10:56:06;;;;;;;4.20;3.13;;;27.60;43.50;;;;;;5007815;28;20044;-64
2023/06/11 10:58:34;;;;;;;5.80;3.25;;;27.80;43.50;;;;;;5002498;28;20252;-64
2023/06/11 11:01:00;;;;;;;6.72;3.22;;;28.00;42.90;;;;;;5009419;28;20085;-64
2023/06/11 11:03:30;;;;;;;4.35;2.85;;;28.00;42.10;;;;;;5005666;28;20108;-63
2023/06/11 11:05:57;;;;;;;5.38;3.00;;;28.00;41.90;;;;;;5001824;28;20034;-64
2023/06/11 11:08:23;;;;;;;8.07;3.58;;;28.00;41.40;;;;;;5011394;28;20055;-63
2023/06/11 11:10:59;;;;;;;5.88;2.70;;;28.00;41.30;;;;;;5005136;28;20040;-63
2023/06/11 11:13:25;;;;;;;5.43;3.00;;;27.80;39.90;;;;;;4988074;28;20107;-64
2023/06/11 11:15:51;;;;;;;5.95;3.35;;;27.70;41.10;;;;;;5016689;28;20128;-63
2023/06/11 11:18:17;;;;;;;7.60;2.95;;;27.50;41.40;;;;;;5001231;28;20053;-64
2023/06/11 11:20:46;;;;;;;6.55;3.10;;;27.50;40.40;;;;;;5000464;28;20034;-64
2023/06/11 11:23:12;;;;;;;3.83;3.10;;;27.40;40.80;;;;;;5005813;28;20029;-64
2023/06/11 11:25:41;;;;;;;5.15;3.80;;;27.40;40.80;;;;;;5007515;28;20040;-64
2023/06/11 11:28:06;;;;;;;5.70;3.53;;;27.40;41.30;;;;;;5002473;28;20029;-63
2023/06/11 11:30:32;;;;;;;6.53;3.30;;;27.40;41.00;;;;;;5004495;28;20033;-64
2023/06/11 11:32:58;;;;;;;5.50;2.58;;;27.30;40.10;;;;;;5010016;28;20056;-64
2023/06/11 11:35:26;;;;;;;5.47;3.20;;;27.20;41.10;;;;;;5002165;28;20045;-64
2023/06/11 11:37:54;;;;;;;5.15;3.30;;;27.30;41.30;;;;;;5020196;28;20444;-65
2023/06/11 11:40:23;;;;;;;6.53;3.13;;;27.30;41.50;;;;;;5003567;28;20044;-65
2023/06/11 11:42:49;;;;;;;6.93;3.58;;;27.20;41.60;;;;;;5008089;28;20125;-65
2023/06/11 11:45:16;;;;;;;6.30;3.13;;;27.20;41.20;;;;;;5006955;28;20052;-64
2023/06/11 11:47:52;;;;;;;3.80;2.90;;;27.10;42.00;;;;;;5009062;28;20065;-65
2023/06/11 11:50:21;;;;;;;6.07;3.00;;;27.20;41.80;;;;;;5003412;28;20034;-64
2023/06/11 11:53:03;;;;;;;5.82;3.20;;;27.30;42.20;;;;;;4994358;28;20116;-65
2023/06/11 11:55:41;;;;;;;4.45;3.15;;;27.50;42.90;;;;;;5002707;28;20060;-64
2023/06/11 11:58:12;;;;;;;7.38;3.22;;;27.70;43.50;;;;;;5004911;28;20026;-64
2023/06/11 12:00:49;;;;;;;7.47;3.75;;;27.80;42.40;;;;;;4995595;28;20072;-65
2023/06/11 12:03:18;;;;;;;4.53;3.45;;;27.80;42.00;;;;;;5009433;28;20103;-64
2023/06/11 12:05:55;;;;;;;6.75;3.72;;;27.90;41.90;;;;;;4992836;28;20222;-64
2023/06/11 12:08:21;;;;;;;5.43;3.88;;;28.00;41.80;;;;;;5008867;28;20128;-63
2023/06/11 12:10:47;;;;;;;6.15;3.28;;;28.00;41.50;;;;;;5011413;28;20026;-64
2023/06/11 12:13:14;;;;;;;4.60;3.50;;;28.00;41.10;;;;;;5005681;28;20041;-64
2023/06/11 12:15:40;;;;;;;5.97;3.47;;;28.00;41.80;;;;;;5008978;28;20042;-64
2023/06/11 12:18:06;;;;;;;4.93;3.47;;;28.00;41.10;;;;;;5002545;28;20026;-64
2023/06/11 12:20:32;;;;;;;4.95;3.47;;;27.90;41.80;;;;;;5006344;28;20678;-64
2023/06/11 12:22:58;;;;;;;6.53;3.85;;;28.00;42.30;;;;;;5009221;28;20060;-64
2023/06/11 12:25:25;;;;;;;10.77;4.07;;;27.90;40.70;;;;;;5009910;28;20089;-63
2023/06/11 12:27:52;;;;;;;7.72;4.07;;;27.90;41.60;;;;;;4999559;28;20050;-65
2023/06/11 12:30:18;;;;;;;6.82;4.22;;;28.10;40.60;;;;;;5008865;28;20128;-64
2023/06/11 12:32:45;;;;;;;3.75;3.40;;;28.10;39.90;;;;;;5005782;28;20534;-64
2023/06/11 12:35:10;;;;;;;5.35;4.03;;;28.10;40.30;;;;;;5005142;28;20034;-63
2023/06/11 12:37:36;;;;;;;7.22;3.78;;;28.00;41.50;;;;;;5008794;28;20136;-66
2023/06/11 12:40:04;;;;;;;4.28;3.53;;;28.00;41.30;;;;;;5012884;28;20441;-65
2023/06/11 12:42:32;;;;;;;6.95;3.60;;;27.90;40.70;;;;;;5014214;28;20028;-63
2023/06/11 12:45:02;;;;;;;5.50;3.67;;;28.00;41.80;;;;;;5005207;28;20037;-64
2023/06/11 12:47:28;;;;;;;7.85;3.70;;;28.10;42.10;;;;;;5005216;28;20029;-63